Time;durP1;ratioP1;P1;durP2;ratioP2;P2;SDS_P1;SDS_P2;PMS_P1;PMS_P2;Temp;Humidity;BMP_temperature;BMP_pressure;BME280_temperature;BME280_humidity;BME280_pressure;Samples;Min_cycle;Max_cycle;Signal;HPM_P1;HPM_P2
2021/11/07 00:00:38;;;;;;;14.52;6.65;;;9.60;83.90;;;;;;5044627;28;20045;-85
2021/11/07 00:03:23;;;;;;;11.13;6.43;;;9.50;83.90;;;;;;5036354;28;20576;-87
2021/11/07 00:06:28;;;;;;;12.23;7.60;;;9.60;84.00;;;;;;5033539;28;20506;-86
2021/11/07 00:13:52;;;;;;;13.85;8.60;;;9.60;84.10;;;;;;5032056;28;20132;-87
2021/11/07 00:16:25;;;;;;;12.60;8.02;;;9.60;84.20;;;;;;5031804;28;20045;-87
2021/11/07 00:19:12;;;;;;;13.00;8.40;;;9.60;84.20;;;;;;5029363;28;20103;-88
2021/11/07 00:29:48;;;;;;;14.27;9.15;;;9.60;84.30;;;;;;5032380;28;20522;-86
2021/11/07 00:32:34;;;;;;;12.50;7.88;;;9.60;84.40;;;;;;5032319;28;20099;-87
2021/11/07 00:37:49;;;;;;;9.75;7.38;;;9.60;84.50;;;;;;5032189;28;20076;-87
2021/11/07 00:45:32;;;;;;;13.13;9.35;;;9.60;84.50;;;;;;5030978;28;20422;-88
2021/11/07 00:51:42;;;;;;;14.25;8.13;;;9.60;84.60;;;;;;5031172;28;20045;-87
2021/11/07 00:57:13;;;;;;;11.57;8.57;;;9.60;84.70;;;;;;5029542;28;20088;-87
2021/11/07 01:02:38;;;;;;;13.85;10.68;;;9.60;84.80;;;;;;5017516;28;20132;-87
2021/11/07 01:05:14;;;;;;;14.32;10.27;;;9.60;84.80;;;;;;5027697;28;20516;-87
2021/11/07 01:07:41;;;;;;;13.10;10.50;;;9.60;84.80;;;;;;5026597;28;20054;-86
2021/11/07 01:10:10;;;;;;;15.35;11.73;;;9.60;84.90;;;;;;5024564;28;20045;-88
2021/11/07 01:12:37;;;;;;;16.13;11.20;;;9.60;84.90;;;;;;5026064;28;20058;-87
2021/11/07 01:15:05;;;;;;;17.23;13.23;;;9.60;85.00;;;;;;5027475;28;20050;-87
2021/11/07 01:17:54;;;;;;;13.98;10.77;;;9.60;85.00;;;;;;5024407;28;20049;-88
2021/11/07 01:20:26;;;;;;;16.48;13.32;;;9.60;85.10;;;;;;5025690;28;20057;-87
2021/11/07 01:23:17;;;;;;;17.77;13.50;;;9.60;85.10;;;;;;5024106;28;20054;-86
2021/11/07 01:25:51;;;;;;;16.50;13.30;;;9.60;85.10;;;;;;5025765;28;20068;-87
2021/11/07 01:28:19;;;;;;;19.35;13.98;;;9.70;85.20;;;;;;5024015;28;20575;-83
2021/11/07 01:30:51;;;;;;;18.40;12.95;;;9.60;85.20;;;;;;5025730;28;20057;-87
2021/11/07 01:33:21;;;;;;;15.98;13.13;;;9.60;85.30;;;;;;5012511;28;20057;-87
2021/11/07 01:36:04;;;;;;;17.17;12.52;;;9.70;85.30;;;;;;5010327;28;20050;-87
2021/11/07 01:38:39;;;;;;;14.60;12.48;;;9.70;85.40;;;;;;5009803;28;20053;-87
2021/11/07 01:41:19;;;;;;;16.83;12.82;;;9.70;85.40;;;;;;5009953;28;20104;-87
2021/11/07 01:43:47;;;;;;;17.63;13.35;;;9.70;85.40;;;;;;5009462;28;20054;-87
2021/11/07 01:49:16;;;;;;;13.50;11.93;;;9.70;85.50;;;;;;5009971;28;20058;-87
2021/11/07 01:51:47;;;;;;;14.73;13.15;;;9.70;85.50;;;;;;4994354;28;20474;-87
2021/11/07 01:56:45;;;;;;;17.98;13.38;;;9.70;85.50;;;;;;5013025;28;20502;-86
2021/11/07 01:59:12;;;;;;;12.25;10.98;;;9.70;85.60;;;;;;5012719;28;20057;-86
2021/11/07 02:01:38;;;;;;;16.73;13.52;;;9.70;85.60;;;;;;5013042;28;20041;-86
2021/11/07 02:04:14;;;;;;;14.45;12.77;;;9.70;85.60;;;;;;5013115;28;20054;-86
2021/11/07 02:06:40;;;;;;;16.20;13.77;;;9.70;85.60;;;;;;5013265;28;20053;-86
2021/11/07 02:09:08;;;;;;;21.58;13.45;;;9.70;85.70;;;;;;5013722;28;20057;-86
2021/11/07 02:11:34;;;;;;;15.13;13.52;;;9.70;85.70;;;;;;5013230;28;20049;-87
2021/11/07 02:14:01;;;;;;;18.67;14.85;;;9.70;85.70;;;;;;5012555;28;20049;-86
2021/11/07 02:16:29;;;;;;;14.65;12.20;;;9.70;85.70;;;;;;5012902;28;20525;-86
2021/11/07 02:19:17;;;;;;;16.02;13.15;;;9.70;85.70;;;;;;5012955;28;20065;-86
2021/11/07 02:21:45;;;;;;;17.65;14.35;;;9.70;85.70;;;;;;5012874;28;20135;-86
2021/11/07 02:24:16;;;;;;;14.27;12.75;;;9.70;85.70;;;;;;5012863;28;20065;-86
2021/11/07 02:26:49;;;;;;;13.95;12.48;;;9.70;85.70;;;;;;5012202;28;20057;-86
2021/11/07 02:29:16;;;;;;;14.68;12.75;;;9.80;85.70;;;;;;5016000;28;20140;-86
2021/11/07 02:31:43;;;;;;;18.75;14.85;;;9.70;85.80;;;;;;5032388;28;20510;-86
2021/11/07 02:34:10;;;;;;;16.75;13.95;;;9.80;85.80;;;;;;5032284;28;20865;-86
2021/11/07 02:36:36;;;;;;;17.65;12.98;;;9.70;85.80;;;;;;5032381;28;20048;-86
2021/11/07 02:39:04;;;;;;;15.68;13.50;;;9.80;85.80;;;;;;5031636;28;20498;-87
2021/11/07 02:41:51;;;;;;;15.27;12.85;;;9.80;85.80;;;;;;5030833;28;20042;-87
2021/11/07 02:44:30;;;;;;;15.63;12.65;;;9.80;85.80;;;;;;5032113;28;20099;-86
2021/11/07 02:47:02;;;;;;;18.77;13.68;;;9.80;85.80;;;;;;5032076;28;20046;-86
2021/11/07 02:49:30;;;;;;;19.30;12.95;;;9.80;85.80;;;;;;5032074;28;20046;-86
2021/11/07 02:51:58;;;;;;;18.90;13.70;;;9.80;85.80;;;;;;5032008;28;20446;-85
2021/11/07 02:54:26;;;;;;;16.30;13.93;;;9.80;85.80;;;;;;5032051;28;20119;-86
2021/11/07 02:56:56;;;;;;;14.70;13.13;;;9.80;85.90;;;;;;5032124;28;20405;-85
2021/11/07 02:59:27;;;;;;;18.38;13.38;;;9.80;85.90;;;;;;5031808;28;20513;-86
2021/11/07 03:01:55;;;;;;;14.82;13.27;;;9.80;85.90;;;;;;5031631;28;20461;-86
2021/11/07 03:04:42;;;;;;;17.70;13.45;;;9.80;85.90;;;;;;5031499;28;20064;-85
2021/11/07 03:07:10;;;;;;;15.40;13.52;;;9.80;86.00;;;;;;5031739;28;20399;-86
2021/11/07 03:09:38;;;;;;;16.75;13.63;;;9.80;86.00;;;;;;5031772;28;20490;-86
2021/11/07 03:12:07;;;;;;;13.80;12.25;;;9.80;86.00;;;;;;5027762;28;20469;-86
2021/11/07 03:14:47;;;;;;;14.43;12.93;;;9.80;86.00;;;;;;5031546;28;20485;-86
2021/11/07 03:17:17;;;;;;;14.10;12.70;;;9.80;86.00;;;;;;5031549;28;20052;-86
2021/11/07 03:19:44;;;;;;;17.15;12.65;;;9.90;86.10;;;;;;5031400;28;20049;-85
2021/11/07 03:22:14;;;;;;;14.68;12.25;;;9.80;86.10;;;;;;5031471;28;20096;-85
2021/11/07 03:24:42;;;;;;;13.93;12.40;;;9.80;86.10;;;;;;5015847;28;20246;-86
2021/11/07 03:27:17;;;;;;;13.93;12.05;;;9.90;86.10;;;;;;5031730;28;20053;-85
2021/11/07 03:29:52;;;;;;;16.25;12.75;;;9.90;86.10;;;;;;5030949;28;20506;-84
2021/11/07 03:32:31;;;;;;;14.77;12.45;;;9.90;86.10;;;;;;5029902;28;20045;-86
2021/11/07 03:35:01;;;;;;;15.20;13.05;;;9.90;86.10;;;;;;5031194;28;20050;-85
2021/11/07 03:37:35;;;;;;;14.32;12.27;;;9.90;86.10;;;;;;5031117;28;20045;-85
2021/11/07 03:40:07;;;;;;;14.35;12.70;;;9.90;86.20;;;;;;5030845;28;20514;-85
2021/11/07 03:42:35;;;;;;;12.35;11.07;;;9.90;86.20;;;;;;5030933;28;20438;-86
2021/11/07 03:45:03;;;;;;;13.30;11.88;;;9.90;86.20;;;;;;5031545;28;20045;-85
2021/11/07 03:47:30;;;;;;;13.57;11.68;;;9.90;86.20;;;;;;5030936;28;20046;-85
2021/11/07 03:49:58;;;;;;;14.13;11.85;;;9.90;86.20;;;;;;5030868;28;20108;-85
2021/11/07 03:52:25;;;;;;;13.05;11.73;;;9.90;86.30;;;;;;5030868;28;20048;-84
2021/11/07 03:54:52;;;;;;;12.65;11.13;;;9.90;86.30;;;;;;5030700;28;20049;-85
2021/11/07 03:57:18;;;;;;;15.93;11.27;;;9.90;86.30;;;;;;5030928;28;20460;-85
2021/11/07 03:59:49;;;;;;;12.98;11.65;;;9.90;86.30;;;;;;5031177;28;20049;-85
2021/11/07 04:02:16;;;;;;;14.57;12.32;;;10.00;86.30;;;;;;5030795;28;20065;-85
2021/11/07 04:04:43;;;;;;;14.23;11.15;;;9.90;86.30;;;;;;5030840;28;20061;-85
2021/11/07 04:07:11;;;;;;;12.20;10.90;;;9.90;86.40;;;;;;5030698;28;20056;-85
2021/11/07 04:09:37;;;;;;;11.57;10.38;;;9.90;86.30;;;;;;5014634;28;20514;-85
2021/11/07 04:12:05;;;;;;;15.95;11.25;;;10.00;86.40;;;;;;5031100;28;20049;-85
2021/11/07 04:14:35;;;;;;;13.27;10.27;;;10.00;86.40;;;;;;5030436;28;20103;-85
2021/11/07 04:17:05;;;;;;;11.95;10.65;;;10.00;86.40;;;;;;5030195;28;20045;-85
2021/11/07 04:19:32;;;;;;;12.40;10.75;;;10.00;86.40;;;;;;5030271;28;20461;-85
2021/11/07 04:22:03;;;;;;;12.77;10.57;;;10.00;86.40;;;;;;5030295;28;20514;-85
2021/11/07 04:24:31;;;;;;;11.55;10.35;;;10.00;86.40;;;;;;5030223;28;20061;-86
2021/11/07 04:27:00;;;;;;;10.57;9.43;;;10.00;86.40;;;;;;5030877;28;20107;-86
2021/11/07 04:29:27;;;;;;;10.05;8.95;;;10.00;86.40;;;;;;5029985;28;20053;-85
2021/11/07 04:31:55;;;;;;;11.98;9.73;;;10.00;86.40;;;;;;5030104;28;20049;-85
2021/11/07 04:34:22;;;;;;;10.60;9.05;;;10.10;86.40;;;;;;5030251;28;20045;-85
2021/11/07 04:36:51;;;;;;;9.93;8.07;;;10.00;86.40;;;;;;5029889;28;20046;-86
2021/11/07 04:39:26;;;;;;;9.27;8.18;;;10.10;86.40;;;;;;5028954;28;20524;-85
2021/11/07 04:41:57;;;;;;;9.07;8.02;;;10.10;86.40;;;;;;5030720;28;20128;-85
2021/11/07 04:44:38;;;;;;;12.55;7.88;;;10.10;86.50;;;;;;5029612;28;20199;-85
2021/11/07 04:47:05;;;;;;;10.80;8.05;;;10.10;86.50;;;;;;5030021;28;20076;-85
2021/11/07 04:49:33;;;;;;;8.50;6.90;;;10.10;86.50;;;;;;5030060;28;20045;-85
2021/11/07 04:52:00;;;;;;;14.00;7.20;;;10.10;86.50;;;;;;5029901;28;20103;-85
2021/11/07 04:54:28;;;;;;;8.30;7.10;;;10.10;86.60;;;;;;5030223;28;20234;-85
2021/11/07 04:56:56;;;;;;;12.20;8.98;;;10.10;86.60;;;;;;5047868;28;20061;-85
2021/11/07 04:59:23;;;;;;;9.23;6.65;;;10.10;86.60;;;;;;5028287;28;20586;-85
2021/11/07 05:01:51;;;;;;;7.93;6.43;;;10.20;86.60;;;;;;5029764;28;20049;-85
2021/11/07 05:04:18;;;;;;;7.15;5.93;;;10.20;86.60;;;;;;5029946;28;20461;-85
2021/11/07 05:06:49;;;;;;;8.25;6.78;;;10.20;86.60;;;;;;5029859;28;20087;-85
2021/11/07 05:09:17;;;;;;;8.23;6.50;;;10.20;86.60;;;;;;5030146;28;20057;-85
2021/11/07 05:11:45;;;;;;;9.98;7.70;;;10.20;86.60;;;;;;5030315;28;20053;-85
2021/11/07 05:14:12;;;;;;;9.20;6.20;;;10.20;86.60;;;;;;5029866;28;20422;-85
2021/11/07 05:16:54;;;;;;;9.30;7.45;;;10.20;86.50;;;;;;5030324;28;20085;-85
2021/11/07 05:19:21;;;;;;;8.02;6.32;;;10.20;86.50;;;;;;5029831;28;20108;-85
2021/11/07 05:21:52;;;;;;;7.75;6.00;;;10.20;86.50;;;;;;5029632;28;20534;-85
2021/11/07 05:24:19;;;;;;;8.80;6.88;;;10.20;86.50;;;;;;5030055;28;20049;-85
2021/11/07 05:26:47;;;;;;;7.13;6.00;;;10.20;86.50;;;;;;5030257;28;20050;-85
2021/11/07 05:29:28;;;;;;;7.70;6.70;;;10.20;86.50;;;;;;5031182;28;20132;-86
2021/11/07 05:31:59;;;;;;;10.05;6.25;;;10.20;86.50;;;;;;5033363;28;20057;-85
2021/11/07 05:34:26;;;;;;;8.88;6.45;;;10.20;86.50;;;;;;5033562;28;20049;-85
2021/11/07 05:36:54;;;;;;;7.82;6.25;;;10.20;86.50;;;;;;5033153;28;20128;-85
2021/11/07 05:39:21;;;;;;;6.57;5.55;;;10.20;86.50;;;;;;5033300;28;20402;-85
2021/11/07 05:41:48;;;;;;;7.50;5.80;;;10.30;86.40;;;;;;5033762;28;20136;-86
2021/11/07 05:44:15;;;;;;;7.20;5.82;;;10.20;86.40;;;;;;5033299;28;20053;-86
2021/11/07 05:46:43;;;;;;;7.82;6.00;;;10.30;86.50;;;;;;5033238;28;20045;-85
2021/11/07 05:49:24;;;;;;;7.25;5.97;;;10.20;86.40;;;;;;5032691;28;20524;-86
2021/11/07 05:51:51;;;;;;;7.47;5.97;;;10.20;86.50;;;;;;5031913;28;20045;-85
2021/11/07 05:54:18;;;;;;;7.93;6.43;;;10.30;86.50;;;;;;5033282;28;20054;-86
2021/11/07 05:56:45;;;;;;;7.72;5.97;;;10.30;86.50;;;;;;5033565;28;20337;-85
2021/11/07 05:59:12;;;;;;;7.32;6.28;;;10.30;86.50;;;;;;5032890;28;20053;-86
2021/11/07 06:01:39;;;;;;;7.97;5.95;;;10.30;86.50;;;;;;5033007;28;20053;-86
2021/11/07 06:04:07;;;;;;;8.13;6.22;;;10.30;86.50;;;;;;5032731;28;20414;-85
2021/11/07 06:06:34;;;;;;;7.22;5.53;;;10.30;86.60;;;;;;5032946;28;20045;-85
2021/11/07 06:09:01;;;;;;;8.85;6.07;;;10.30;86.60;;;;;;5033449;28;20061;-86
2021/11/07 06:11:31;;;;;;;8.82;6.13;;;10.30;86.60;;;;;;5032753;28;20050;-86
2021/11/07 06:13:58;;;;;;;10.15;5.95;;;10.30;86.60;;;;;;5032714;28;20477;-85
2021/11/07 06:16:25;;;;;;;9.65;5.93;;;10.30;86.60;;;;;;5032701;28;20056;-85
2021/11/07 06:18:53;;;;;;;9.35;5.88;;;10.30;86.50;;;;;;5032225;28;20461;-85
2021/11/07 06:21:21;;;;;;;7.03;5.20;;;10.40;86.50;;;;;;5032756;28;20099;-86
2021/11/07 06:23:49;;;;;;;6.20;4.85;;;10.30;86.50;;;;;;5032893;28;20119;-85
2021/11/07 06:26:16;;;;;;;7.35;5.45;;;10.30;86.50;;;;;;5032488;28;20551;-86
2021/11/07 06:28:43;;;;;;;7.80;5.10;;;10.30;86.50;;;;;;5032217;28;20103;-86
2021/11/07 06:31:12;;;;;;;6.63;5.00;;;10.30;86.40;;;;;;5032518;28;20095;-85
2021/11/07 06:33:40;;;;;;;7.65;5.63;;;10.30;86.40;;;;;;5016532;28;20041;-86
2021/11/07 06:36:07;;;;;;;6.03;4.80;;;10.30;86.40;;;;;;5028907;28;20469;-86
2021/11/07 06:38:34;;;;;;;6.22;4.90;;;10.30;86.30;;;;;;5032221;28;20418;-86
2021/11/07 06:41:01;;;;;;;7.28;4.82;;;10.30;86.30;;;;;;5031717;28;20403;-86
2021/11/07 06:43:29;;;;;;;11.40;4.97;;;10.30;86.20;;;;;;5032132;28;20107;-86
2021/11/07 06:45:56;;;;;;;8.57;4.97;;;10.20;86.20;;;;;;5032349;28;20049;-85
2021/11/07 06:48:23;;;;;;;10.43;5.28;;;10.20;86.20;;;;;;5031872;28;20060;-85
2021/11/07 06:50:50;;;;;;;7.65;5.07;;;10.20;86.10;;;;;;5029282;28;20056;-85
2021/11/07 06:53:17;;;;;;;8.27;4.75;;;10.20;86.10;;;;;;5031997;28;20053;-87
2021/11/07 06:55:44;;;;;;;8.27;5.18;;;10.20;86.10;;;;;;5031963;28;20168;-86
2021/11/07 06:58:11;;;;;;;7.43;4.78;;;10.20;86.10;;;;;;5032019;28;20505;-86
2021/11/07 07:00:43;;;;;;;6.40;4.75;;;10.20;86.10;;;;;;5016189;28;20038;-86
2021/11/07 07:03:10;;;;;;;8.63;5.18;;;10.20;86.10;;;;;;5028105;28;20512;-86
2021/11/07 07:05:37;;;;;;;9.18;5.55;;;10.10;86.10;;;;;;5032005;28;20053;-86
2021/11/07 07:08:11;;;;;;;7.13;5.00;;;10.10;86.10;;;;;;5031657;28;20061;-86
2021/11/07 07:10:53;;;;;;;;;;;10.20;86.10;;;;;;5032309;28;20052;-85
2021/11/07 07:13:31;;;;;;;7.80;5.00;;;10.10;86.10;;;;;;5031546;28;19921;-85
2021/11/07 07:21:52;;;;;;;8.70;5.25;;;10.10;86.10;;;;;;4994332;28;20100;-85
2021/11/07 07:27:18;;;;;;;7.28;5.07;;;10.00;86.10;;;;;;5010421;28;20148;-86
2021/11/07 07:29:57;;;;;;;10.50;5.68;;;10.00;86.10;;;;;;5009671;28;20054;-85
2021/11/07 07:34:56;;;;;;;7.93;5.20;;;10.00;86.10;;;;;;5010478;28;20053;-86
2021/11/07 07:37:24;;;;;;;10.88;5.57;;;10.00;86.10;;;;;;5009975;28;20050;-85
2021/11/07 07:39:52;;;;;;;11.05;5.43;;;10.00;86.20;;;;;;5010261;28;20042;-85
2021/11/07 07:42:20;;;;;;;8.10;5.22;;;9.90;86.20;;;;;;5010371;28;20097;-85
2021/11/07 07:44:51;;;;;;;11.00;5.95;;;10.00;86.20;;;;;;5010632;28;20077;-85
2021/11/07 07:47:19;;;;;;;9.15;5.15;;;10.00;86.20;;;;;;5009717;28;20073;-85
2021/11/07 07:49:50;;;;;;;8.73;5.53;;;10.00;86.20;;;;;;5010105;28;20108;-85
2021/11/07 07:52:38;;;;;;;8.95;5.57;;;9.90;86.20;;;;;;5008861;28;20519;-86
2021/11/07 07:55:08;;;;;;;8.50;5.30;;;9.90;86.30;;;;;;5010168;28;20112;-86
2021/11/07 07:57:36;;;;;;;8.73;5.28;;;9.90;86.30;;;;;;5022542;28;20050;-85
2021/11/07 08:00:06;;;;;;;10.02;5.28;;;9.90;86.30;;;;;;5031843;28;20061;-85
2021/11/07 08:02:33;;;;;;;11.57;5.35;;;9.90;86.30;;;;;;5031821;28;20076;-85
2021/11/07 08:05:00;;;;;;;12.02;5.60;;;9.90;86.30;;;;;;5031825;28;20068;-85
2021/11/07 08:07:27;;;;;;;12.60;6.05;;;9.90;86.40;;;;;;5031603;28;20041;-86
2021/11/07 08:10:09;;;;;;;14.45;5.72;;;10.00;86.40;;;;;;5032177;28;20119;-85
2021/11/07 08:12:38;;;;;;;11.07;5.97;;;10.00;86.40;;;;;;5031424;28;20046;-85
2021/11/07 08:15:09;;;;;;;13.35;6.15;;;10.00;86.40;;;;;;5030788;28;20084;-85
2021/11/07 08:17:37;;;;;;;19.77;6.03;;;10.00;86.50;;;;;;5030574;28;20045;-85
2021/11/07 08:20:08;;;;;;;13.77;6.10;;;10.00;86.50;;;;;;5030348;28;20056;-85
2021/11/07 08:22:41;;;;;;;13.40;5.85;;;10.00;86.50;;;;;;5030326;28;20049;-85
2021/11/07 08:25:12;;;;;;;10.40;5.83;;;10.00;86.60;;;;;;5030403;28;20115;-85
2021/11/07 08:27:43;;;;;;;13.07;5.80;;;10.10;86.60;;;;;;5014899;28;20357;-85
2021/11/07 08:30:29;;;;;;;11.85;5.45;;;10.10;86.70;;;;;;5026559;28;20061;-86
2021/11/07 08:32:57;;;;;;;10.75;4.95;;;10.10;86.70;;;;;;5046824;28;20050;-86
2021/11/07 08:35:24;;;;;;;8.38;5.35;;;10.10;86.70;;;;;;5028683;28;20053;-85
2021/11/07 08:38:11;;;;;;;6.72;4.70;;;10.10;86.70;;;;;;5030108;28;20057;-86
2021/11/07 08:40:59;;;;;;;9.90;4.88;;;10.20;86.80;;;;;;5030194;28;20123;-86
2021/11/07 09:00:31;;;;;;;10.60;4.82;;;10.30;86.80;;;;;;5030218;28;20049;-85
2021/11/07 09:08:50;;;;;;;7.95;4.10;;;10.50;86.80;;;;;;4977096;28;20050;-86
2021/11/07 09:11:19;;;;;;;10.20;4.30;;;10.50;86.80;;;;;;4976722;28;20092;-86
2021/11/07 09:13:47;;;;;;;8.10;4.10;;;10.50;86.80;;;;;;4976308;28;20050;-86
2021/11/07 09:16:15;;;;;;;9.57;4.38;;;10.60;86.80;;;;;;4976811;28;20479;-86
2021/11/07 09:18:43;;;;;;;6.82;4.03;;;10.60;86.80;;;;;;4972697;28;20054;-86
2021/11/07 09:21:17;;;;;;;9.98;4.22;;;10.60;86.70;;;;;;4960529;28;20647;-86
2021/11/07 09:23:51;;;;;;;;;;;10.60;86.70;;;;;;4977602;28;20047;-85
2021/11/07 09:26:23;;;;;;;9.27;4.20;;;10.70;86.70;;;;;;4976465;28;19922;-86
2021/11/07 09:29:11;;;;;;;9.73;4.78;;;10.60;86.60;;;;;;4974944;28;20583;-86
2021/11/07 09:32:15;;;;;;;11.48;4.40;;;10.60;86.60;;;;;;4976266;28;20141;-86
2021/11/07 09:34:58;;;;;;;9.05;4.68;;;10.70;86.50;;;;;;4974305;28;20043;-86
2021/11/07 09:37:47;;;;;;;10.57;4.75;;;10.70;86.50;;;;;;4976358;28;20508;-86
2021/11/07 09:40:15;;;;;;;16.10;5.32;;;10.70;86.50;;;;;;4976204;28;20125;-86
2021/11/07 09:46:10;;;;;;;21.17;5.85;;;10.70;86.50;;;;;;5002725;28;20449;-86
2021/11/07 09:48:34;;;;;;;13.18;4.95;;;10.80;86.60;;;;;;5027159;28;20107;-86
2021/11/07 09:51:04;;;;;;;30.10;5.20;;;10.80;86.60;;;;;;5033237;28;20045;-88
2021/11/07 09:53:51;;;;;;;20.80;4.68;;;10.90;86.60;;;;;;5033077;28;20521;-88
2021/11/07 09:56:20;;;;;;;20.95;4.60;;;11.00;86.50;;;;;;5033030;28;20057;-88
2021/11/07 09:58:50;;;;;;;16.48;4.88;;;11.10;86.50;;;;;;5033035;28;20065;-89
2021/11/07 10:01:18;;;;;;;18.55;4.82;;;11.20;86.30;;;;;;5032868;28;20526;-90
2021/11/07 10:03:46;;;;;;;18.95;4.22;;;11.30;86.20;;;;;;5034206;28;20049;-88
2021/11/07 10:06:59;;;;;;;17.10;4.43;;;11.40;86.00;;;;;;5033295;28;20050;-88
2021/11/07 10:09:34;;;;;;;20.70;4.57;;;11.50;85.80;;;;;;5031276;28;20050;-88
2021/11/07 10:12:13;;;;;;;17.90;3.80;;;11.60;85.60;;;;;;5033094;28;20125;-88
2021/11/07 10:15:04;;;;;;;17.33;4.30;;;11.70;85.30;;;;;;5032009;28;20119;-89
2021/11/07 10:17:51;;;;;;;12.90;3.40;;;11.80;85.10;;;;;;5032683;28;20450;-88
2021/11/07 10:20:37;;;;;;;15.83;3.60;;;11.80;84.80;;;;;;5032653;28;20060;-88
2021/11/07 10:23:33;;;;;;;19.92;4.05;;;11.90;84.60;;;;;;5032518;28;20692;-87
2021/11/07 10:28:54;;;;;;;16.23;3.40;;;12.10;84.10;;;;;;5036732;28;20518;-88
2021/11/07 10:31:37;;;;;;;13.93;3.50;;;12.10;83.90;;;;;;5032440;28;20545;-89
2021/11/07 10:43:29;;;;;;;11.57;3.28;;;12.40;82.80;;;;;;5019239;28;20046;-88
2021/11/07 10:54:24;;;;;;;22.83;3.97;;;12.70;81.60;;;;;;5045044;28;20079;-87
2021/11/07 10:57:17;;;;;;;21.60;3.80;;;12.70;81.30;;;;;;5036024;28;20049;-88
2021/11/07 11:00:15;;;;;;;13.88;2.85;;;12.80;80.90;;;;;;5036669;28;20053;-88
2021/11/07 11:03:13;;;;;;;18.20;3.17;;;12.80;80.60;;;;;;5035161;28;20477;-89
2021/11/07 11:08:38;;;;;;;16.10;2.90;;;12.90;79.90;;;;;;5035409;28;20119;-89
2021/11/07 11:11:12;;;;;;;16.25;3.42;;;12.90;79.60;;;;;;5033372;28;20057;-89
2021/11/07 11:17:06;;;;;;;17.15;3.40;;;12.90;79.10;;;;;;5033486;28;20049;-89
2021/11/07 11:22:35;;;;;;;12.80;2.50;;;12.90;78.60;;;;;;5033345;28;20045;-89
2021/11/07 11:28:07;;;;;;;18.08;3.55;;;12.80;78.20;;;;;;5015144;28;20054;-87
2021/11/07 11:38:55;;;;;;;16.42;3.00;;;12.70;77.60;;;;;;5034324;28;20041;-87
2021/11/07 11:41:40;;;;;;;16.25;3.00;;;12.70;77.60;;;;;;5032764;28;20556;-87
2021/11/07 11:44:20;;;;;;;11.75;2.50;;;12.70;77.50;;;;;;5032626;28;20095;-87
2021/11/07 11:47:11;;;;;;;11.45;2.85;;;12.60;77.60;;;;;;5034118;28;20050;-88
2021/11/07 11:52:58;;;;;;;11.73;3.38;;;12.60;77.80;;;;;;5032273;28;20048;-88
2021/11/07 12:03:21;;;;;;;11.90;2.15;;;12.50;77.80;;;;;;5031647;28;20073;-87
2021/11/07 12:05:53;;;;;;;12.52;2.42;;;12.50;77.90;;;;;;5033858;28;20053;-88
2021/11/07 12:08:25;;;;;;;12.68;2.53;;;12.50;77.90;;;;;;5033852;28;20057;-88
2021/11/07 12:11:37;;;;;;;15.63;2.80;;;12.40;77.90;;;;;;5032283;28;20107;-88
2021/11/07 12:14:15;;;;;;;13.60;2.65;;;12.40;77.90;;;;;;5032135;28;20052;-88
2021/11/07 12:16:54;;;;;;;17.13;3.78;;;12.40;77.90;;;;;;5032376;28;20103;-88
2021/11/07 12:19:31;;;;;;;13.55;2.60;;;12.40;77.90;;;;;;5033583;28;20052;-87
2021/11/07 12:22:02;;;;;;;13.02;3.33;;;12.40;77.80;;;;;;5030022;28;20442;-88
2021/11/07 12:24:54;;;;;;;11.90;3.00;;;12.40;77.80;;;;;;5030854;28;20041;-88
2021/11/07 12:27:27;;;;;;;12.98;2.83;;;12.40;77.70;;;;;;5043663;28;20048;-88
2021/11/07 12:30:15;;;;;;;13.68;3.17;;;12.40;77.60;;;;;;5034254;28;20505;-88
2021/11/07 12:32:45;;;;;;;17.23;3.78;;;12.30;77.60;;;;;;5034929;28;20053;-88
2021/11/07 12:35:42;;;;;;;15.63;3.28;;;12.40;77.60;;;;;;5030343;28;20046;-88
2021/11/07 12:41:06;;;;;;;14.80;3.00;;;12.40;77.60;;;;;;5032333;28;20049;-88
2021/11/07 12:43:42;;;;;;;18.45;3.35;;;12.30;77.60;;;;;;5033379;28;20584;-88
2021/11/07 12:46:43;;;;;;;13.30;2.90;;;12.40;77.60;;;;;;5031660;28;20044;-88
2021/11/07 12:49:26;;;;;;;13.77;2.45;;;12.30;77.50;;;;;;5021345;28;20513;-89
2021/11/07 12:52:08;;;;;;;15.45;3.13;;;12.30;77.50;;;;;;5028750;28;20053;-89
2021/11/07 12:54:40;;;;;;;18.55;3.53;;;12.40;77.60;;;;;;5028829;28;20077;-87
2021/11/07 12:57:33;;;;;;;15.38;2.72;;;12.30;77.60;;;;;;5042834;28;20056;-87
2021/11/07 13:00:06;;;;;;;19.25;3.72;;;12.40;77.60;;;;;;5035558;28;20068;-89
2021/11/07 13:02:34;;;;;;;11.68;2.80;;;12.40;77.50;;;;;;5032159;28;20041;-88
2021/11/07 13:05:03;;;;;;;18.60;3.17;;;12.40;77.50;;;;;;5031423;28;20452;-87
2021/11/07 13:13:39;;;;;;;15.75;2.75;;;12.40;77.30;;;;;;5031166;28;20124;-86
2021/11/07 13:24:56;;;;;;;12.52;2.88;;;12.30;77.10;;;;;;5028118;28;20115;-86
2021/11/07 13:27:30;;;;;;;11.38;2.47;;;12.40;77.10;;;;;;5025311;28;20076;-86
2021/11/07 13:30:06;;;;;;;12.48;2.85;;;12.40;77.10;;;;;;5027589;28;20065;-86
2021/11/07 13:32:37;;;;;;;13.68;2.65;;;12.30;77.00;;;;;;5023340;28;20046;-86
2021/11/07 13:35:12;;;;;;;14.00;2.92;;;12.40;77.10;;;;;;5022578;28;20046;-85
2021/11/07 13:37:52;;;;;;;15.80;2.70;;;12.40;77.10;;;;;;5023526;28;20054;-86
2021/11/07 13:40:27;;;;;;;13.75;3.00;;;12.40;77.00;;;;;;5023413;28;20041;-86
2021/11/07 13:43:05;;;;;;;14.63;3.15;;;12.40;76.90;;;;;;5026141;28;20045;-87
2021/11/07 13:45:36;;;;;;;12.27;2.40;;;12.40;76.70;;;;;;5027214;28;20458;-86
2021/11/07 13:48:12;;;;;;;14.18;2.83;;;12.40;76.50;;;;;;5024032;28;20053;-86
2021/11/07 13:50:41;;;;;;;16.52;2.63;;;12.40;76.30;;;;;;5030071;28;20045;-87
2021/11/07 13:53:21;;;;;;;12.82;3.00;;;12.40;76.10;;;;;;5026823;28;20046;-87
2021/11/07 13:55:54;;;;;;;14.32;2.70;;;12.40;76.00;;;;;;5035129;28;20061;-86
2021/11/07 13:58:25;;;;;;;14.05;2.67;;;12.40;75.90;;;;;;5036740;28;20106;-86
2021/11/07 14:00:56;;;;;;;17.83;3.13;;;12.40;75.80;;;;;;5033785;28;20049;-90
2021/11/07 14:03:24;;;;;;;17.00;3.40;;;12.40;75.70;;;;;;5034480;28;20077;-90
2021/11/07 14:06:02;;;;;;;15.57;3.30;;;12.40;75.50;;;;;;5036701;28;20514;-90
2021/11/07 14:08:45;;;;;;;19.23;3.22;;;12.40;75.20;;;;;;5034725;28;20103;-89
2021/11/07 14:11:15;;;;;;;20.52;3.53;;;12.40;75.10;;;;;;5064345;28;20054;-88
2021/11/07 14:13:45;;;;;;;13.95;3.30;;;12.40;75.00;;;;;;5034649;28;20460;-89
2021/11/07 14:16:15;;;;;;;16.63;3.20;;;12.40;74.80;;;;;;5034325;28;20049;-88
2021/11/07 14:18:44;;;;;;;17.80;3.60;;;12.40;74.80;;;;;;5013399;28;20447;-87
2021/11/07 14:21:18;;;;;;;16.70;3.15;;;12.40;74.70;;;;;;5036416;28;20052;-87
2021/11/07 14:23:54;;;;;;;16.50;3.47;;;12.30;74.60;;;;;;5036477;28;20108;-87
2021/11/07 14:26:42;;;;;;;20.02;3.53;;;12.30;74.60;;;;;;5034328;28;20053;-89
2021/11/07 14:32:09;;;;;;;17.15;3.10;;;12.20;74.60;;;;;;5032190;28;20135;-89
2021/11/07 14:37:19;;;;;;;17.42;3.72;;;12.20;74.60;;;;;;5033076;28;20045;-91
2021/11/07 14:40:16;;;;;;;18.80;3.42;;;12.10;74.40;;;;;;5014344;28;20147;-89
2021/11/07 14:43:31;;;;;;;18.83;3.05;;;12.10;74.20;;;;;;5013389;28;20053;-89
2021/11/07 14:46:15;;;;;;;16.50;3.20;;;12.00;74.30;;;;;;5018642;28;20548;-88
2021/11/07 15:00:18;;;;;;;12.57;2.95;;;11.90;74.70;;;;;;5008537;28;20109;-88
2021/11/07 15:03:01;;;;;;;14.63;2.88;;;11.90;74.80;;;;;;5009142;28;20046;-89
2021/11/07 15:05:34;;;;;;;14.38;3.10;;;11.80;74.80;;;;;;5008579;28;20061;-89
2021/11/07 15:11:53;;;;;;;17.67;3.60;;;11.70;75.00;;;;;;5008513;28;20061;-89
2021/11/07 15:16:33;;;;;;;16.52;2.95;;;11.60;75.10;;;;;;5007933;28;20466;-89
2021/11/07 15:19:30;;;;;;;16.92;3.30;;;11.60;75.10;;;;;;5008394;28;20046;-89
2021/11/07 15:22:31;;;;;;;16.70;3.28;;;11.50;75.20;;;;;;5024006;28;20656;-89
2021/11/07 15:25:04;;;;;;;14.80;3.17;;;11.40;75.20;;;;;;4993222;28;20100;-88
2021/11/07 15:27:34;;;;;;;16.42;3.40;;;11.40;75.30;;;;;;5009237;28;20116;-88
2021/11/07 15:30:12;;;;;;;17.25;3.38;;;11.40;75.40;;;;;;5035680;28;20099;-88
2021/11/07 15:32:40;;;;;;;14.38;2.78;;;11.40;75.50;;;;;;5032775;28;20411;-88
2021/11/07 15:35:30;;;;;;;24.23;3.60;;;11.40;75.50;;;;;;5031917;28;20095;-88
2021/11/07 15:38:14;;;;;;;13.38;2.90;;;11.30;75.40;;;;;;5031990;28;20115;-89
2021/11/07 15:40:41;;;;;;;15.98;2.70;;;11.30;75.50;;;;;;5031838;28;20111;-89
2021/11/07 15:43:17;;;;;;;15.63;2.75;;;11.30;75.50;;;;;;5031076;28;20574;-88
2021/11/07 15:46:19;;;;;;;14.45;2.78;;;11.20;75.60;;;;;;5013664;28;20430;-87
2021/11/07 15:48:49;;;;;;;12.52;3.00;;;11.20;75.60;;;;;;5012366;28;20057;-88
2021/11/07 16:04:26;;;;;;;17.58;3.15;;;10.90;76.00;;;;;;5016931;28;20104;-87
2021/11/07 16:07:02;;;;;;;12.70;3.00;;;10.90;76.00;;;;;;5014649;28;20490;-88
2021/11/07 16:12:30;;;;;;;12.75;2.80;;;10.80;76.20;;;;;;5041992;28;20063;-88
2021/11/07 16:17:42;;;;;;;17.83;3.70;;;10.70;76.20;;;;;;5033597;28;20060;-89